sensor_id;sensor_type;location;lat;lon;timestamp;temperature;humidity
64549;DHT22;49838;51.798;10.954;2023-05-23T00:00:17;23.70;37.60
64549;DHT22;49838;51.798;10.954;2023-05-23T00:02:45;23.70;37.40
64549;DHT22;49838;51.798;10.954;2023-05-23T00:05:13;23.70;37.30
64549;DHT22;49838;51.798;10.954;2023-05-23T00:07:44;23.70;37.30
64549;DHT22;49838;51.798;10.954;2023-05-23T00:10:12;23.70;37.20
64549;DHT22;49838;51.798;10.954;2023-05-23T00:12:39;23.70;37.10
64549;DHT22;49838;51.798;10.954;2023-05-23T00:15:07;23.70;37.10
64549;DHT22;49838;51.798;10.954;2023-05-23T00:17:35;23.60;37.10
64549;DHT22;49838;51.798;10.954;2023-05-23T00:20:04;23.70;37.20
64549;DHT22;49838;51.798;10.954;2023-05-23T00:22:34;23.60;37.10
64549;DHT22;49838;51.798;10.954;2023-05-23T00:25:06;23.60;37.20
64549;DHT22;49838;51.798;10.954;2023-05-23T00:27:34;23.50;37.20
64549;DHT22;49838;51.798;10.954;2023-05-23T00:30:02;23.40;37.20
64549;DHT22;49838;51.798;10.954;2023-05-23T00:32:30;23.40;37.90
64549;DHT22;49838;51.798;10.954;2023-05-23T00:34:57;23.40;37.30
64549;DHT22;49838;51.798;10.954;2023-05-23T00:37:24;23.40;37.30
64549;DHT22;49838;51.798;10.954;2023-05-23T00:39:53;23.30;37.30
64549;DHT22;49838;51.798;10.954;2023-05-23T00:42:21;23.30;37.40
64549;DHT22;49838;51.798;10.954;2023-05-23T00:44:49;23.30;37.30
64549;DHT22;49838;51.798;10.954;2023-05-23T00:47:16;23.30;37.40
64549;DHT22;49838;51.798;10.954;2023-05-23T00:49:43;23.40;37.40
64549;DHT22;49838;51.798;10.954;2023-05-23T00:52:11;23.30;37.50
64549;DHT22;49838;51.798;10.954;2023-05-23T00:54:38;23.30;37.40
64549;DHT22;49838;51.798;10.954;2023-05-23T00:57:06;23.30;37.40
64549;DHT22;49838;51.798;10.954;2023-05-23T00:59:34;23.30;37.90
64549;DHT22;49838;51.798;10.954;2023-05-23T01:02:03;23.30;37.10
64549;DHT22;49838;51.798;10.954;2023-05-23T01:04:31;23.30;37.00
64549;DHT22;49838;51.798;10.954;2023-05-23T01:06:58;23.30;37.00
64549;DHT22;49838;51.798;10.954;2023-05-23T01:09:27;23.40;37.00
64549;DHT22;49838;51.798;10.954;2023-05-23T01:11:57;23.40;36.90
64549;DHT22;49838;51.798;10.954;2023-05-23T01:14:37;23.40;36.80
64549;DHT22;49838;51.798;10.954;2023-05-23T01:17:12;23.50;36.80
64549;DHT22;49838;51.798;10.954;2023-05-23T01:19:48;23.50;36.70
64549;DHT22;49838;51.798;10.954;2023-05-23T01:22:25;23.50;36.70
64549;DHT22;49838;51.798;10.954;2023-05-23T01:25:06;23.60;36.70
64549;DHT22;49838;51.798;10.954;2023-05-23T01:27:47;23.60;36.60
64549;DHT22;49838;51.798;10.954;2023-05-23T01:30:19;23.60;36.50
64549;DHT22;49838;51.798;10.954;2023-05-23T01:32:47;23.60;36.50
64549;DHT22;49838;51.798;10.954;2023-05-23T01:35:18;23.50;36.50
64549;DHT22;49838;51.798;10.954;2023-05-23T01:37:51;23.50;36.60
64549;DHT22;49838;51.798;10.954;2023-05-23T01:40:18;23.40;36.60
64549;DHT22;49838;51.798;10.954;2023-05-23T01:42:47;23.40;36.70
64549;DHT22;49838;51.798;10.954;2023-05-23T01:45:15;23.30;36.80
64549;DHT22;49838;51.798;10.954;2023-05-23T01:47:43;23.20;36.90
64549;DHT22;49838;51.798;10.954;2023-05-23T01:50:12;23.20;37.10
64549;DHT22;49838;51.798;10.954;2023-05-23T01:52:40;23.10;37.20
64549;DHT22;49838;51.798;10.954;2023-05-23T01:55:07;23.10;37.40
64549;DHT22;49838;51.798;10.954;2023-05-23T01:57:36;23.10;37.40
64549;DHT22;49838;51.798;10.954;2023-05-23T02:00:06;22.90;37.30
64549;DHT22;49838;51.798;10.954;2023-05-23T02:02:36;22.90;37.20
64549;DHT22;49838;51.798;10.954;2023-05-23T02:05:04;22.90;37.10
64549;DHT22;49838;51.798;10.954;2023-05-23T02:07:32;22.80;37.00
64549;DHT22;49838;51.798;10.954;2023-05-23T02:09:59;22.80;37.00
64549;DHT22;49838;51.798;10.954;2023-05-23T02:12:27;22.80;36.90
64549;DHT22;49838;51.798;10.954;2023-05-23T02:14:54;22.80;36.90
64549;DHT22;49838;51.798;10.954;2023-05-23T02:17:23;22.80;36.90
64549;DHT22;49838;51.798;10.954;2023-05-23T02:19:50;22.80;36.80
64549;DHT22;49838;51.798;10.954;2023-05-23T02:22:21;22.70;36.70
64549;DHT22;49838;51.798;10.954;2023-05-23T02:24:49;22.70;36.60
64549;DHT22;49838;51.798;10.954;2023-05-23T02:27:16;22.70;36.60
64549;DHT22;49838;51.798;10.954;2023-05-23T02:29:44;22.70;36.60
64549;DHT22;49838;51.798;10.954;2023-05-23T02:32:11;22.70;36.60
64549;DHT22;49838;51.798;10.954;2023-05-23T02:34:39;22.60;36.50
64549;DHT22;49838;51.798;10.954;2023-05-23T02:37:07;22.60;36.60
64549;DHT22;49838;51.798;10.954;2023-05-23T02:39:34;22.50;36.50
64549;DHT22;49838;51.798;10.954;2023-05-23T02:42:02;22.50;36.60
64549;DHT22;49838;51.798;10.954;2023-05-23T02:44:29;22.50;36.60
64549;DHT22;49838;51.798;10.954;2023-05-23T02:46:56;22.50;36.60
64549;DHT22;49838;51.798;10.954;2023-05-23T02:49:24;22.40;36.50
64549;DHT22;49838;51.798;10.954;2023-05-23T02:51:52;22.40;36.50
64549;DHT22;49838;51.798;10.954;2023-05-23T02:54:20;22.40;36.50
64549;DHT22;49838;51.798;10.954;2023-05-23T02:56:47;22.40;36.50
64549;DHT22;49838;51.798;10.954;2023-05-23T02:59:15;22.30;36.50
64549;DHT22;49838;51.798;10.954;2023-05-23T03:01:42;22.30;36.60
64549;DHT22;49838;51.798;10.954;2023-05-23T03:04:10;22.20;36.60
64549;DHT22;49838;51.798;10.954;2023-05-23T03:06:38;22.20;36.70
64549;DHT22;49838;51.798;10.954;2023-05-23T03:09:08;22.20;36.70
64549;DHT22;49838;51.798;10.954;2023-05-23T03:11:35;22.10;37.50
64549;DHT22;49838;51.798;10.954;2023-05-23T03:14:03;22.10;37.00
64549;DHT22;49838;51.798;10.954;2023-05-23T03:16:30;22.10;36.90
64549;DHT22;49838;51.798;10.954;2023-05-23T03:18:57;22.00;36.80
64549;DHT22;49838;51.798;10.954;2023-05-23T03:21:25;22.00;36.70
64549;DHT22;49838;51.798;10.954;2023-05-23T03:23:52;22.10;36.70
64549;DHT22;49838;51.798;10.954;2023-05-23T03:26:21;22.10;36.70
64549;DHT22;49838;51.798;10.954;2023-05-23T03:28:48;22.10;36.60
64549;DHT22;49838;51.798;10.954;2023-05-23T03:31:16;22.10;36.50
64549;DHT22;49838;51.798;10.954;2023-05-23T03:33:43;22.10;36.80
64549;DHT22;49838;51.798;10.954;2023-05-23T03:36:10;22.10;36.90
64549;DHT22;49838;51.798;10.954;2023-05-23T03:38:38;22.00;36.80
64549;DHT22;49838;51.798;10.954;2023-05-23T03:41:05;22.00;37.20
64549;DHT22;49838;51.798;10.954;2023-05-23T03:43:34;21.90;37.20
64549;DHT22;49838;51.798;10.954;2023-05-23T03:46:01;21.90;37.00
64549;DHT22;49838;51.798;10.954;2023-05-23T03:48:28;21.90;36.80
64549;DHT22;49838;51.798;10.954;2023-05-23T03:50:56;21.90;36.80
64549;DHT22;49838;51.798;10.954;2023-05-23T03:53:23;22.00;36.70
64549;DHT22;49838;51.798;10.954;2023-05-23T03:55:50;22.00;36.70
64549;DHT22;49838;51.798;10.954;2023-05-23T03:58:18;22.10;36.80
64549;DHT22;49838;51.798;10.954;2023-05-23T04:00:47;22.10;36.70
64549;DHT22;49838;51.798;10.954;2023-05-23T04:03:14;22.20;36.70
64549;DHT22;49838;51.798;10.954;2023-05-23T04:05:42;22.30;37.10
64549;DHT22;49838;51.798;10.954;2023-05-23T04:08:09;22.30;37.20
64549;DHT22;49838;51.798;10.954;2023-05-23T04:10:37;22.40;37.70
64549;DHT22;49838;51.798;10.954;2023-05-23T04:13:05;22.30;37.80
64549;DHT22;49838;51.798;10.954;2023-05-23T04:15:32;22.30;38.10
64549;DHT22;49838;51.798;10.954;2023-05-23T04:18:01;22.40;38.80
64549;DHT22;49838;51.798;10.954;2023-05-23T04:20:29;22.30;39.10
64549;DHT22;49838;51.798;10.954;2023-05-23T04:22:56;22.30;39.60
64549;DHT22;49838;51.798;10.954;2023-05-23T04:25:23;22.30;39.90
64549;DHT22;49838;51.798;10.954;2023-05-23T04:27:51;22.20;40.20
64549;DHT22;49838;51.798;10.954;2023-05-23T04:30:19;22.20;40.50
64549;DHT22;49838;51.798;10.954;2023-05-23T04:32:47;22.20;40.50
64549;DHT22;49838;51.798;10.954;2023-05-23T04:35:15;22.10;40.50
64549;DHT22;49838;51.798;10.954;2023-05-23T04:37:45;22.10;40.50
64549;DHT22;49838;51.798;10.954;2023-05-23T04:40:12;22.10;40.60
64549;DHT22;49838;51.798;10.954;2023-05-23T04:42:41;22.00;40.50
64549;DHT22;49838;51.798;10.954;2023-05-23T04:45:09;22.00;40.80
64549;DHT22;49838;51.798;10.954;2023-05-23T04:47:37;21.90;41.40
64549;DHT22;49838;51.798;10.954;2023-05-23T04:50:05;21.80;41.90
64549;DHT22;49838;51.798;10.954;2023-05-23T04:52:34;21.80;41.90
64549;DHT22;49838;51.798;10.954;2023-05-23T04:55:02;21.80;42.20
64549;DHT22;49838;51.798;10.954;2023-05-23T04:57:29;21.80;42.20
64549;DHT22;49838;51.798;10.954;2023-05-23T04:59:57;21.80;42.00
64549;DHT22;49838;51.798;10.954;2023-05-23T05:02:26;21.80;41.70
64549;DHT22;49838;51.798;10.954;2023-05-23T05:04:53;22.00;41.50
64549;DHT22;49838;51.798;10.954;2023-05-23T05:07:20;22.30;41.40
64549;DHT22;49838;51.798;10.954;2023-05-23T05:09:49;23.10;41.10
64549;DHT22;49838;51.798;10.954;2023-05-23T05:12:16;24.00;40.30
64549;DHT22;49838;51.798;10.954;2023-05-23T05:14:43;24.90;39.90
64549;DHT22;49838;51.798;10.954;2023-05-23T05:17:11;25.50;39.40
64549;DHT22;49838;51.798;10.954;2023-05-23T05:19:38;26.00;39.10
64549;DHT22;49838;51.798;10.954;2023-05-23T05:22:05;26.40;39.10
64549;DHT22;49838;51.798;10.954;2023-05-23T05:24:33;26.90;38.90
64549;DHT22;49838;51.798;10.954;2023-05-23T05:27:03;27.20;38.50
64549;DHT22;49838;51.798;10.954;2023-05-23T05:29:30;27.70;38.40
64549;DHT22;49838;51.798;10.954;2023-05-23T05:31:58;28.10;38.20
64549;DHT22;49838;51.798;10.954;2023-05-23T05:34:26;28.60;38.00
64549;DHT22;49838;51.798;10.954;2023-05-23T05:36:54;29.00;37.70
64549;DHT22;49838;51.798;10.954;2023-05-23T05:39:22;29.40;37.50
64549;DHT22;49838;51.798;10.954;2023-05-23T05:41:51;29.80;37.40
64549;DHT22;49838;51.798;10.954;2023-05-23T05:44:19;30.30;37.20
64549;DHT22;49838;51.798;10.954;2023-05-23T05:46:49;30.60;37.00
64549;DHT22;49838;51.798;10.954;2023-05-23T05:49:17;30.30;36.80
64549;DHT22;49838;51.798;10.954;2023-05-23T05:51:44;29.80;36.90
64549;DHT22;49838;51.798;10.954;2023-05-23T05:54:11;29.30;37.30
64549;DHT22;49838;51.798;10.954;2023-05-23T05:56:39;28.80;37.50
64549;DHT22;49838;51.798;10.954;2023-05-23T05:59:07;28.50;37.70
64549;DHT22;49838;51.798;10.954;2023-05-23T06:01:35;28.20;37.70
64549;DHT22;49838;51.798;10.954;2023-05-23T06:04:03;27.80;37.70
64549;DHT22;49838;51.798;10.954;2023-05-23T06:06:32;27.50;37.80
64549;DHT22;49838;51.798;10.954;2023-05-23T06:08:59;27.30;37.80
64549;DHT22;49838;51.798;10.954;2023-05-23T06:11:27;27.00;37.80
64549;DHT22;49838;51.798;10.954;2023-05-23T06:13:54;26.60;37.90
64549;DHT22;49838;51.798;10.954;2023-05-23T06:16:21;26.20;38.10
64549;DHT22;49838;51.798;10.954;2023-05-23T06:18:50;26.00;38.20
64549;DHT22;49838;51.798;10.954;2023-05-23T06:21:17;25.80;38.30
64549;DHT22;49838;51.798;10.954;2023-05-23T06:23:45;25.60;38.30
64549;DHT22;49838;51.798;10.954;2023-05-23T06:26:12;25.40;38.30
64549;DHT22;49838;51.798;10.954;2023-05-23T06:28:40;25.30;38.40
64549;DHT22;49838;51.798;10.954;2023-05-23T06:31:07;25.10;38.30
64549;DHT22;49838;51.798;10.954;2023-05-23T06:33:35;25.00;38.50
64549;DHT22;49838;51.798;10.954;2023-05-23T06:36:04;24.90;38.30
64549;DHT22;49838;51.798;10.954;2023-05-23T06:38:32;24.80;38.40
64549;DHT22;49838;51.798;10.954;2023-05-23T06:40:59;24.80;38.40
64549;DHT22;49838;51.798;10.954;2023-05-23T06:43:27;24.80;38.30
64549;DHT22;49838;51.798;10.954;2023-05-23T06:45:54;24.70;38.20
64549;DHT22;49838;51.798;10.954;2023-05-23T06:48:21;24.70;38.30
64549;DHT22;49838;51.798;10.954;2023-05-23T06:50:49;24.70;38.20
64549;DHT22;49838;51.798;10.954;2023-05-23T06:53:18;24.70;38.20
64549;DHT22;49838;51.798;10.954;2023-05-23T06:55:45;24.90;38.30
64549;DHT22;49838;51.798;10.954;2023-05-23T06:58:13;25.00;38.10
64549;DHT22;49838;51.798;10.954;2023-05-23T07:00:40;25.20;38.00
64549;DHT22;49838;51.798;10.954;2023-05-23T07:03:08;25.50;38.00
64549;DHT22;49838;51.798;10.954;2023-05-23T07:05:35;25.70;38.00
64549;DHT22;49838;51.798;10.954;2023-05-23T07:08:03;25.70;37.90
64549;DHT22;49838;51.798;10.954;2023-05-23T07:10:31;25.80;38.00
64549;DHT22;49838;51.798;10.954;2023-05-23T07:13:00;25.90;38.00
64549;DHT22;49838;51.798;10.954;2023-05-23T07:15:27;25.90;38.70
64549;DHT22;49838;51.798;10.954;2023-05-23T07:17:54;26.00;38.10
64549;DHT22;49838;51.798;10.954;2023-05-23T07:20:22;26.00;38.00
64549;DHT22;49838;51.798;10.954;2023-05-23T07:22:49;25.90;38.00
64549;DHT22;49838;51.798;10.954;2023-05-23T07:25:17;25.80;37.90
64549;DHT22;49838;51.798;10.954;2023-05-23T07:27:46;25.70;37.90
64549;DHT22;49838;51.798;10.954;2023-05-23T07:30:13;25.60;38.10
64549;DHT22;49838;51.798;10.954;2023-05-23T07:32:41;25.50;38.10
64549;DHT22;49838;51.798;10.954;2023-05-23T07:35:08;25.30;38.30
64549;DHT22;49838;51.798;10.954;2023-05-23T07:37:36;25.30;38.40
64549;DHT22;49838;51.798;10.954;2023-05-23T07:40:03;25.20;38.60
64549;DHT22;49838;51.798;10.954;2023-05-23T07:42:32;25.30;38.70
64549;DHT22;49838;51.798;10.954;2023-05-23T07:45:00;25.30;38.60
64549;DHT22;49838;51.798;10.954;2023-05-23T07:47:28;25.30;38.60
64549;DHT22;49838;51.798;10.954;2023-05-23T07:49:55;25.10;38.60
64549;DHT22;49838;51.798;10.954;2023-05-23T07:52:27;25.10;38.60
64549;DHT22;49838;51.798;10.954;2023-05-23T07:54:55;25.10;38.60
64549;DHT22;49838;51.798;10.954;2023-05-23T07:57:22;25.00;38.60
64549;DHT22;49838;51.798;10.954;2023-05-23T07:59:51;24.90;38.60
64549;DHT22;49838;51.798;10.954;2023-05-23T08:02:20;25.00;38.70
64549;DHT22;49838;51.798;10.954;2023-05-23T08:04:48;24.90;38.80
64549;DHT22;49838;51.798;10.954;2023-05-23T08:07:16;24.90;38.70
64549;DHT22;49838;51.798;10.954;2023-05-23T08:09:43;24.90;38.70
64549;DHT22;49838;51.798;10.954;2023-05-23T08:12:11;25.00;38.70
64549;DHT22;49838;51.798;10.954;2023-05-23T08:14:38;25.20;38.60
64549;DHT22;49838;51.798;10.954;2023-05-23T08:17:06;25.30;38.70
64549;DHT22;49838;51.798;10.954;2023-05-23T08:19:35;25.30;38.70
64549;DHT22;49838;51.798;10.954;2023-05-23T08:22:02;25.40;38.80
64549;DHT22;49838;51.798;10.954;2023-05-23T08:24:30;25.40;38.90
64549;DHT22;49838;51.798;10.954;2023-05-23T08:26:59;25.40;38.90
64549;DHT22;49838;51.798;10.954;2023-05-23T08:29:26;25.30;38.90
64549;DHT22;49838;51.798;10.954;2023-05-23T08:31:54;25.30;39.00
64549;DHT22;49838;51.798;10.954;2023-05-23T08:34:21;25.20;39.10
64549;DHT22;49838;51.798;10.954;2023-05-23T08:37:02;25.00;39.20
64549;DHT22;49838;51.798;10.954;2023-05-23T08:39:30;24.80;39.20
64549;DHT22;49838;51.798;10.954;2023-05-23T08:41:57;24.60;39.30
64549;DHT22;49838;51.798;10.954;2023-05-23T08:44:24;24.50;39.40
64549;DHT22;49838;51.798;10.954;2023-05-23T08:46:54;24.40;39.40
64549;DHT22;49838;51.798;10.954;2023-05-23T08:49:23;24.20;39.40
64549;DHT22;49838;51.798;10.954;2023-05-23T08:51:53;24.20;39.40
64549;DHT22;49838;51.798;10.954;2023-05-23T08:54:27;24.10;39.50
64549;DHT22;49838;51.798;10.954;2023-05-23T08:56:55;24.10;39.50
64549;DHT22;49838;51.798;10.954;2023-05-23T08:59:23;24.00;39.40
64549;DHT22;49838;51.798;10.954;2023-05-23T09:01:52;24.00;39.40
64549;DHT22;49838;51.798;10.954;2023-05-23T09:04:22;24.00;39.40
64549;DHT22;49838;51.798;10.954;2023-05-23T09:06:50;23.90;39.30
64549;DHT22;49838;51.798;10.954;2023-05-23T09:09:18;23.90;39.30
64549;DHT22;49838;51.798;10.954;2023-05-23T09:11:46;23.90;39.40
64549;DHT22;49838;51.798;10.954;2023-05-23T09:14:13;23.80;39.30
64549;DHT22;49838;51.798;10.954;2023-05-23T09:16:44;23.80;39.50
64549;DHT22;49838;51.798;10.954;2023-05-23T09:19:13;23.70;39.70
64549;DHT22;49838;51.798;10.954;2023-05-23T09:21:41;23.50;39.70
64549;DHT22;49838;51.798;10.954;2023-05-23T09:24:09;23.50;39.70
64549;DHT22;49838;51.798;10.954;2023-05-23T09:26:38;23.50;39.90
64549;DHT22;49838;51.798;10.954;2023-05-23T09:29:05;23.40;40.20
64549;DHT22;49838;51.798;10.954;2023-05-23T09:31:33;23.30;40.20
64549;DHT22;49838;51.798;10.954;2023-05-23T09:34:01;23.20;40.60
64549;DHT22;49838;51.798;10.954;2023-05-23T09:36:28;23.10;41.10
64549;DHT22;49838;51.798;10.954;2023-05-23T09:38:57;22.90;41.10
64549;DHT22;49838;51.798;10.954;2023-05-23T09:41:29;22.80;41.40
64549;DHT22;49838;51.798;10.954;2023-05-23T09:43:58;22.70;41.40
64549;DHT22;49838;51.798;10.954;2023-05-23T09:46:33;22.60;41.30
64549;DHT22;49838;51.798;10.954;2023-05-23T09:49:01;22.50;41.30
64549;DHT22;49838;51.798;10.954;2023-05-23T09:51:28;22.50;41.50
64549;DHT22;49838;51.798;10.954;2023-05-23T09:53:56;22.40;41.80
64549;DHT22;49838;51.798;10.954;2023-05-23T09:56:24;22.30;41.80
64549;DHT22;49838;51.798;10.954;2023-05-23T09:58:53;22.20;41.60
64549;DHT22;49838;51.798;10.954;2023-05-23T10:01:23;22.10;41.70
64549;DHT22;49838;51.798;10.954;2023-05-23T10:03:52;22.00;41.90
64549;DHT22;49838;51.798;10.954;2023-05-23T10:06:25;21.90;41.70
64549;DHT22;49838;51.798;10.954;2023-05-23T10:09:01;21.80;41.60
64549;DHT22;49838;51.798;10.954;2023-05-23T10:14:46;21.60;42.30
64549;DHT22;49838;51.798;10.954;2023-05-23T10:17:24;21.40;42.30
64549;DHT22;49838;51.798;10.954;2023-05-23T10:19:57;21.30;42.20
64549;DHT22;49838;51.798;10.954;2023-05-23T10:22:33;21.10;42.30
64549;DHT22;49838;51.798;10.954;2023-05-23T10:25:05;21.00;42.30
64549;DHT22;49838;51.798;10.954;2023-05-23T10:27:33;20.90;42.80
64549;DHT22;49838;51.798;10.954;2023-05-23T10:30:00;20.80;43.50
64549;DHT22;49838;51.798;10.954;2023-05-23T10:32:30;20.80;43.70
64549;DHT22;49838;51.798;10.954;2023-05-23T10:35:02;20.70;43.50
64549;DHT22;49838;51.798;10.954;2023-05-23T10:37:38;20.60;43.40
64549;DHT22;49838;51.798;10.954;2023-05-23T10:40:11;20.60;43.60
64549;DHT22;49838;51.798;10.954;2023-05-23T10:42:50;20.60;43.70
64549;DHT22;49838;51.798;10.954;2023-05-23T10:45:22;20.60;44.10
64549;DHT22;49838;51.798;10.954;2023-05-23T10:47:51;20.60;44.50
64549;DHT22;49838;51.798;10.954;2023-05-23T10:50:32;20.60;44.80
64549;DHT22;49838;51.798;10.954;2023-05-23T10:53:01;20.60;44.60
64549;DHT22;49838;51.798;10.954;2023-05-23T10:55:30;20.60;44.50
64549;DHT22;49838;51.798;10.954;2023-05-23T10:58:08;20.60;44.50
64549;DHT22;49838;51.798;10.954;2023-05-23T11:00:36;20.60;44.60
64549;DHT22;49838;51.798;10.954;2023-05-23T11:03:07;20.60;44.70
64549;DHT22;49838;51.798;10.954;2023-05-23T11:05:36;20.60;44.90
64549;DHT22;49838;51.798;10.954;2023-05-23T11:08:09;20.60;44.80
64549;DHT22;49838;51.798;10.954;2023-05-23T11:10:51;20.70;44.80
64549;DHT22;49838;51.798;10.954;2023-05-23T11:13:24;20.70;44.80
64549;DHT22;49838;51.798;10.954;2023-05-23T11:18:58;20.80;45.30
64549;DHT22;49838;51.798;10.954;2023-05-23T11:21:51;20.70;45.10
64549;DHT22;49838;51.798;10.954;2023-05-23T11:27:26;20.60;45.10
64549;DHT22;49838;51.798;10.954;2023-05-23T11:29:58;20.50;44.90
64549;DHT22;49838;51.798;10.954;2023-05-23T11:32:30;20.50;45.10
64549;DHT22;49838;51.798;10.954;2023-05-23T11:34:59;20.40;44.90
64549;DHT22;49838;51.798;10.954;2023-05-23T11:37:27;20.30;45.20
64549;DHT22;49838;51.798;10.954;2023-05-23T11:39:55;20.30;45.50
64549;DHT22;49838;51.798;10.954;2023-05-23T11:42:24;20.30;45.40
64549;DHT22;49838;51.798;10.954;2023-05-23T11:44:51;20.30;45.20
64549;DHT22;49838;51.798;10.954;2023-05-23T11:47:19;20.30;45.20
64549;DHT22;49838;51.798;10.954;2023-05-23T11:49:46;20.30;45.10
64549;DHT22;49838;51.798;10.954;2023-05-23T11:52:15;20.20;45.20
64549;DHT22;49838;51.798;10.954;2023-05-23T11:54:42;20.10;45.50
64549;DHT22;49838;51.798;10.954;2023-05-23T11:57:11;20.10;45.40
64549;DHT22;49838;51.798;10.954;2023-05-23T11:59:39;20.00;45.70
64549;DHT22;49838;51.798;10.954;2023-05-23T12:02:07;19.90;45.40
64549;DHT22;49838;51.798;10.954;2023-05-23T12:04:34;19.90;45.30
64549;DHT22;49838;51.798;10.954;2023-05-23T12:07:05;19.80;45.30
64549;DHT22;49838;51.798;10.954;2023-05-23T12:09:41;19.70;45.50
64549;DHT22;49838;51.798;10.954;2023-05-23T12:12:09;19.60;45.60
64549;DHT22;49838;51.798;10.954;2023-05-23T12:14:38;19.50;46.00
64549;DHT22;49838;51.798;10.954;2023-05-23T12:17:10;19.40;46.00
64549;DHT22;49838;51.798;10.954;2023-05-23T12:19:37;19.30;46.00
64549;DHT22;49838;51.798;10.954;2023-05-23T12:22:05;19.30;45.90
64549;DHT22;49838;51.798;10.954;2023-05-23T12:24:33;19.30;46.50
64549;DHT22;49838;51.798;10.954;2023-05-23T12:27:05;19.20;46.50
64549;DHT22;49838;51.798;10.954;2023-05-23T12:29:35;19.10;46.30
64549;DHT22;49838;51.798;10.954;2023-05-23T12:32:05;19.10;46.40
64549;DHT22;49838;51.798;10.954;2023-05-23T12:34:33;19.10;46.90
64549;DHT22;49838;51.798;10.954;2023-05-23T12:37:00;19.10;46.80
64549;DHT22;49838;51.798;10.954;2023-05-23T12:39:29;19.10;46.80
64549;DHT22;49838;51.798;10.954;2023-05-23T12:42:07;19.20;46.80
64549;DHT22;49838;51.798;10.954;2023-05-23T12:44:35;19.20;46.50
64549;DHT22;49838;51.798;10.954;2023-05-23T12:47:02;19.20;46.90
64549;DHT22;49838;51.798;10.954;2023-05-23T12:49:30;19.30;47.10
64549;DHT22;49838;51.798;10.954;2023-05-23T12:51:57;19.30;47.20
64549;DHT22;49838;51.798;10.954;2023-05-23T12:54:25;19.40;47.40
64549;DHT22;49838;51.798;10.954;2023-05-23T12:56:52;19.30;47.40
64549;DHT22;49838;51.798;10.954;2023-05-23T12:59:20;19.30;47.50
64549;DHT22;49838;51.798;10.954;2023-05-23T13:01:48;19.30;47.50
64549;DHT22;49838;51.798;10.954;2023-05-23T13:04:19;19.40;47.30
64549;DHT22;49838;51.798;10.954;2023-05-23T13:06:48;19.50;47.20
64549;DHT22;49838;51.798;10.954;2023-05-23T13:09:15;19.40;47.30
64549;DHT22;49838;51.798;10.954;2023-05-23T13:11:43;19.30;47.20
64549;DHT22;49838;51.798;10.954;2023-05-23T13:14:11;19.20;47.30
64549;DHT22;49838;51.798;10.954;2023-05-23T13:16:40;19.10;47.70
64549;DHT22;49838;51.798;10.954;2023-05-23T13:19:08;19.00;47.60
64549;DHT22;49838;51.798;10.954;2023-05-23T13:21:35;18.90;47.70
64549;DHT22;49838;51.798;10.954;2023-05-23T13:24:03;18.70;47.70
64549;DHT22;49838;51.798;10.954;2023-05-23T13:26:30;18.70;47.80
64549;DHT22;49838;51.798;10.954;2023-05-23T13:28:58;18.60;47.70
64549;DHT22;49838;51.798;10.954;2023-05-23T13:31:25;18.50;47.70
64549;DHT22;49838;51.798;10.954;2023-05-23T13:33:54;18.50;47.90
64549;DHT22;49838;51.798;10.954;2023-05-23T13:36:21;18.40;47.90
64549;DHT22;49838;51.798;10.954;2023-05-23T13:38:50;18.40;48.00
64549;DHT22;49838;51.798;10.954;2023-05-23T13:41:17;18.30;47.90
64549;DHT22;49838;51.798;10.954;2023-05-23T13:43:45;18.30;48.00
64549;DHT22;49838;51.798;10.954;2023-05-23T13:46:13;18.30;48.10
64549;DHT22;49838;51.798;10.954;2023-05-23T13:48:40;18.30;48.20
64549;DHT22;49838;51.798;10.954;2023-05-23T13:51:09;18.30;48.00
64549;DHT22;49838;51.798;10.954;2023-05-23T13:53:36;18.40;48.00
64549;DHT22;49838;51.798;10.954;2023-05-23T13:56:03;18.40;48.00
64549;DHT22;49838;51.798;10.954;2023-05-23T13:58:31;18.40;47.90
64549;DHT22;49838;51.798;10.954;2023-05-23T14:00:58;18.50;47.80
64549;DHT22;49838;51.798;10.954;2023-05-23T14:03:25;18.50;47.70
64549;DHT22;49838;51.798;10.954;2023-05-23T14:05:55;18.60;47.80
64549;DHT22;49838;51.798;10.954;2023-05-23T14:08:23;18.60;47.80
64549;DHT22;49838;51.798;10.954;2023-05-23T14:10:51;18.60;47.80
64549;DHT22;49838;51.798;10.954;2023-05-23T14:13:18;18.50;47.90
64549;DHT22;49838;51.798;10.954;2023-05-23T14:15:47;18.50;48.00
64549;DHT22;49838;51.798;10.954;2023-05-23T14:18:15;18.50;48.00
64549;DHT22;49838;51.798;10.954;2023-05-23T14:20:43;18.60;47.90
64549;DHT22;49838;51.798;10.954;2023-05-23T14:23:10;18.70;47.60
64549;DHT22;49838;51.798;10.954;2023-05-23T14:25:39;18.90;47.40
64549;DHT22;49838;51.798;10.954;2023-05-23T14:28:08;19.10;47.40
64549;DHT22;49838;51.798;10.954;2023-05-23T14:30:38;19.30;47.30
64549;DHT22;49838;51.798;10.954;2023-05-23T14:33:05;19.40;47.20
64549;DHT22;49838;51.798;10.954;2023-05-23T14:35:33;19.70;47.20
64549;DHT22;49838;51.798;10.954;2023-05-23T14:38:02;19.70;47.00
64549;DHT22;49838;51.798;10.954;2023-05-23T14:40:31;19.80;47.00
64549;DHT22;49838;51.798;10.954;2023-05-23T14:42:59;19.90;46.90
64549;DHT22;49838;51.798;10.954;2023-05-23T14:45:27;19.90;46.90
64549;DHT22;49838;51.798;10.954;2023-05-23T14:47:57;19.80;46.50
64549;DHT22;49838;51.798;10.954;2023-05-23T14:50:25;19.70;46.50
64549;DHT22;49838;51.798;10.954;2023-05-23T14:52:52;19.70;46.60
64549;DHT22;49838;51.798;10.954;2023-05-23T14:55:22;19.60;46.70
64549;DHT22;49838;51.798;10.954;2023-05-23T14:57:49;19.60;46.60
64549;DHT22;49838;51.798;10.954;2023-05-23T15:00:18;19.60;46.50
64549;DHT22;49838;51.798;10.954;2023-05-23T15:02:46;19.70;46.50
64549;DHT22;49838;51.798;10.954;2023-05-23T15:05:13;20.00;46.50
64549;DHT22;49838;51.798;10.954;2023-05-23T15:07:44;20.30;46.50
64549;DHT22;49838;51.798;10.954;2023-05-23T15:10:15;20.40;46.20
64549;DHT22;49838;51.798;10.954;2023-05-23T15:12:42;20.60;46.20
64549;DHT22;49838;51.798;10.954;2023-05-23T15:15:09;20.60;46.10
64549;DHT22;49838;51.798;10.954;2023-05-23T15:17:38;20.70;46.20
64549;DHT22;49838;51.798;10.954;2023-05-23T15:20:06;20.80;46.20
64549;DHT22;49838;51.798;10.954;2023-05-23T15:22:35;20.90;46.30
64549;DHT22;49838;51.798;10.954;2023-05-23T15:25:02;21.10;46.30
64549;DHT22;49838;51.798;10.954;2023-05-23T15:27:30;21.20;46.30
64549;DHT22;49838;51.798;10.954;2023-05-23T15:29:59;21.30;46.10
64549;DHT22;49838;51.798;10.954;2023-05-23T15:32:27;21.20;46.00